Main page
METAR-TAF:

METAR-TAF

Airports :

Singapore Changi Airport

Singapore, Singapore

latitude: 01-22N, longitude: 103-59E, elevation: 5 m

Current weather observation

The report was made 24 minutes ago, at 22:30 UTC
Wind 5 kt from the North
Temperature 26°C
Humidity 89%
Pressure 1010 hPa
Visibility 10 km or more
Few clouds at a height of 1800 ft
Broken clouds at a height of 30000 ft

METAR: WSSS 242230Z 35005KT 9999 FEW018 BKN300 26/24 Q1010 NOSIG

Time: 06:54 (22:54 UTC)

Forecast

The report was made 5 hours and 54 minutes ago, at 17:00 UTC
Forecast valid from 24 at 18 UTC to 26 at 00 UTC
Wind 12 kt from the North
Visibility 10 km or more
Few clouds at a height of 1500 ft
Scattered clouds at a height of 2000 ft

TAF: WSSS 241700Z 2418/2600 01012KT 9999 FEW015 SCT020

Weather observations and forecasts of more than 4000 airports (METAR and TAF reports).

The available stations are represented by yellow and red dots on the map.

Hover mouse over dot to see the name of the station.

Then click to see weather observations and forecasts.

To change the map : click on the green buttons with a black cross to zoom in, on the green button with a dash to zoom out, or on the green arrows for adjacent maps.


METAR-TAF: